createdAt,value
2019-02-23T00:01:08.570Z,91.26
2019-02-23T00:03:39.553Z,92.23
2019-02-23T00:06:06.894Z,92.98
2019-02-23T00:08:34.236Z,93.26
2019-02-23T00:11:01.593Z,93.63
2019-02-23T00:13:29.062Z,94.04
2019-02-23T00:15:56.413Z,94.27
2019-02-23T00:18:23.774Z,94.39
2019-02-23T00:20:51.115Z,94.54
2019-02-23T00:23:18.453Z,94.65
2019-02-23T00:25:46.221Z,94.65
2019-02-23T00:28:13.522Z,94.50
2019-02-23T00:30:40.887Z,94.50
2019-02-23T00:33:08.286Z,94.50
2019-02-23T00:35:35.613Z,94.67
2019-02-23T00:38:03.290Z,94.41
2019-02-23T00:40:30.733Z,94.30
2019-02-23T00:42:58.075Z,94.35
2019-02-23T00:45:25.409Z,94.41
2019-02-23T00:47:52.808Z,94.43
2019-02-23T00:50:20.129Z,94.70
2019-02-23T00:52:47.457Z,94.73
2019-02-23T00:55:14.853Z,94.53
2019-02-23T00:57:42.193Z,94.47
2019-02-23T01:00:11.033Z,94.64
2019-02-23T01:02:38.433Z,94.73
2019-02-23T01:05:05.893Z,94.78
2019-02-23T01:07:33.325Z,94.84
2019-02-23T01:10:00.818Z,94.88
2019-02-23T01:12:28.197Z,94.91
2019-02-23T01:14:55.522Z,94.93
2019-02-23T01:17:22.881Z,94.97
2019-02-23T01:19:50.210Z,95.03
2019-02-23T01:22:17.573Z,95.06
2019-02-23T01:24:45.380Z,95.10
2019-02-23T01:27:12.697Z,95.12
2019-02-23T01:29:40.060Z,95.09
2019-02-23T01:32:08.102Z,95.14
2019-02-23T01:34:35.431Z,95.13
2019-02-23T01:37:02.739Z,95.10
2019-02-23T01:39:30.813Z,95.01
2019-02-23T01:41:58.148Z,95.09
2019-02-23T01:44:25.507Z,95.04
2019-02-23T01:46:52.824Z,95.00
2019-02-23T01:49:20.647Z,95.03
2019-02-23T01:51:47.969Z,94.98
2019-02-23T01:54:15.328Z,94.95
2019-02-23T01:56:42.655Z,94.97
2019-02-23T01:59:09.960Z,94.93
2019-02-23T02:01:37.310Z,94.83
2019-02-23T02:04:04.716Z,94.80
2019-02-23T02:06:33.628Z,94.78
2019-02-23T02:09:01.230Z,94.65
2019-02-23T02:11:28.527Z,94.63
2019-02-23T02:13:55.886Z,94.47
2019-02-23T02:16:23.400Z,94.48
2019-02-23T02:18:50.761Z,94.38
2019-02-23T02:21:18.074Z,94.36
2019-02-23T02:23:45.436Z,94.31
2019-02-23T02:26:12.747Z,94.25
2019-02-23T02:28:40.073Z,94.18
2019-02-23T02:31:07.415Z,94.16
2019-02-23T02:33:57.162Z,94.11
2019-02-23T02:36:24.516Z,94.14
2019-02-23T02:38:51.849Z,94.20
2019-02-23T02:41:19.134Z,94.19
2019-02-23T02:43:46.513Z,94.21
2019-02-23T02:46:13.851Z,94.18
2019-02-23T02:48:41.181Z,94.12
2019-02-23T02:51:08.556Z,94.12
2019-02-23T02:53:35.842Z,94.07
2019-02-23T02:56:03.254Z,94.08
2019-02-23T02:58:30.621Z,94.09
2019-02-23T03:00:57.936Z,94.14
2019-02-23T03:03:25.260Z,94.18
2019-02-23T03:05:52.637Z,94.23
2019-02-23T03:08:19.937Z,94.25
2019-02-23T03:10:47.220Z,94.22
2019-02-23T03:13:14.594Z,94.22
2019-02-23T03:15:41.894Z,94.31
2019-02-23T03:18:09.189Z,94.28
2019-02-23T03:20:37.039Z,94.23
2019-02-23T03:23:04.596Z,94.26
2019-02-23T03:25:31.916Z,94.36
2019-02-23T03:27:59.281Z,94.38
2019-02-23T03:30:26.762Z,94.46
2019-02-23T03:32:54.460Z,94.41
2019-02-23T03:35:22.098Z,94.45
2019-02-23T03:37:49.703Z,94.48
2019-02-23T03:40:17.223Z,94.47
2019-02-23T03:42:44.791Z,94.42
2019-02-23T03:45:12.600Z,94.46
2019-02-23T03:47:40.220Z,94.39
2019-02-23T03:50:07.607Z,94.35
2019-02-23T03:52:37.028Z,94.28
2019-02-23T03:55:04.703Z,94.25
2019-02-23T03:57:32.064Z,94.29
2019-02-23T03:59:59.380Z,94.27
2019-02-23T04:02:26.700Z,94.25
2019-02-23T04:04:54.074Z,94.27
2019-02-23T04:07:21.389Z,94.23
2019-02-23T04:09:48.690Z,94.21
2019-02-23T04:12:16.060Z,94.18
2019-02-23T04:14:43.380Z,94.19
2019-02-23T04:17:10.705Z,94.19
2019-02-23T04:19:38.066Z,94.17
2019-02-23T04:22:05.357Z,94.12
2019-02-23T04:24:32.695Z,94.18
2019-02-23T04:27:00.041Z,94.15
2019-02-23T04:29:27.409Z,94.26
2019-02-23T04:31:54.747Z,94.25
2019-02-23T04:34:22.129Z,94.28
2019-02-23T04:36:49.434Z,94.28
2019-02-23T04:39:16.769Z,94.19
2019-02-23T04:41:44.131Z,94.11
2019-02-23T04:44:11.461Z,94.08
2019-02-23T04:46:39.200Z,94.09
2019-02-23T04:49:06.604Z,94.08
2019-02-23T04:51:34.378Z,94.12
2019-02-23T04:54:01.732Z,94.08
2019-02-23T04:56:29.044Z,94.16
2019-02-23T04:58:56.468Z,94.13
2019-02-23T05:01:23.780Z,94.07
2019-02-23T05:03:51.162Z,94.07
2019-02-23T05:06:18.483Z,94.01
2019-02-23T05:08:45.903Z,93.96
2019-02-23T05:11:13.268Z,93.98
2019-02-23T05:13:40.578Z,93.93
2019-02-23T05:16:07.894Z,93.93
2019-02-23T05:18:35.265Z,93.92
2019-02-23T05:21:02.581Z,93.98
2019-02-23T05:23:29.875Z,93.94
2019-02-23T05:25:57.275Z,93.90
2019-02-23T05:28:24.596Z,93.82
2019-02-23T05:30:51.892Z,93.78
2019-02-23T05:33:19.220Z,93.74
2019-02-23T05:35:46.535Z,93.69
2019-02-23T05:38:13.849Z,93.73
2019-02-23T05:40:41.181Z,93.66
2019-02-23T05:43:08.528Z,93.58
2019-02-23T05:45:35.824Z,93.51
2019-02-23T05:48:03.183Z,93.46
2019-02-23T05:50:30.531Z,93.48
2019-02-23T05:52:58.088Z,93.52
2019-02-23T05:55:25.459Z,93.36
2019-02-23T05:57:52.762Z,93.33
2019-02-23T06:00:20.076Z,93.36
2019-02-23T06:02:47.418Z,93.30
2019-02-23T06:05:14.752Z,93.31
2019-02-23T06:07:42.040Z,93.37
2019-02-23T06:10:10.083Z,93.29
2019-02-23T06:12:37.414Z,93.36
2019-02-23T06:15:06.970Z,93.31
2019-02-23T06:17:34.342Z,93.35
2019-02-23T06:20:01.642Z,93.37
2019-02-23T06:22:28.928Z,93.42
2019-02-23T06:24:56.290Z,93.42
2019-02-23T06:27:23.656Z,93.47
2019-02-23T06:29:50.938Z,93.51
2019-02-23T06:32:18.312Z,93.51
2019-02-23T06:34:45.624Z,93.39
2019-02-23T06:37:12.934Z,93.42
2019-02-23T06:39:40.284Z,93.27
2019-02-23T06:42:07.613Z,93.07
2019-02-23T06:44:34.931Z,92.80
2019-02-23T06:47:02.290Z,92.62
2019-02-23T06:49:29.663Z,92.65
2019-02-23T06:52:04.260Z,92.48
2019-02-23T06:54:27.712Z,92.33
2019-02-23T06:56:55.034Z,92.17
2019-02-23T06:59:22.364Z,91.87
2019-02-23T07:01:49.722Z,91.74
2019-02-23T07:04:17.533Z,91.69
2019-02-23T07:06:44.849Z,91.56
2019-02-23T07:09:12.195Z,91.41
2019-02-23T07:11:39.800Z,91.43
2019-02-23T07:14:07.122Z,91.26
2019-02-23T07:16:34.492Z,91.18
2019-02-23T07:19:01.830Z,91.12
2019-02-23T07:21:29.139Z,91.12
2019-02-23T07:23:56.499Z,91.03
2019-02-23T07:26:23.832Z,90.89
2019-02-23T07:28:51.168Z,90.82
2019-02-23T07:31:18.521Z,90.90
2019-02-23T07:33:45.813Z,91.02
2019-02-23T07:36:13.137Z,91.31
2019-02-23T07:38:40.502Z,91.27
2019-02-23T07:41:07.882Z,91.29
2019-02-23T07:43:35.184Z,91.04
2019-02-23T07:46:02.640Z,90.92
2019-02-23T07:48:29.970Z,90.88
2019-02-23T07:50:57.326Z,90.66
2019-02-23T07:53:24.690Z,90.60
2019-02-23T07:55:52.017Z,90.51
2019-02-23T07:58:19.346Z,90.37
2019-02-23T08:00:47.044Z,90.33
2019-02-23T08:03:14.526Z,90.47
2019-02-23T08:05:41.876Z,90.28
2019-02-23T08:08:09.286Z,90.13
2019-02-23T08:10:36.634Z,90.11
2019-02-23T08:13:04.923Z,89.86
2019-02-23T08:15:32.333Z,89.80
2019-02-23T08:17:59.648Z,89.54
2019-02-23T08:20:27.197Z,89.66
2019-02-23T08:22:54.622Z,89.56
2019-02-23T08:25:21.976Z,89.48
2019-02-23T08:27:49.357Z,89.31
2019-02-23T08:30:16.763Z,89.44
2019-02-23T08:32:44.073Z,89.53
2019-02-23T08:35:11.402Z,89.33
2019-02-23T08:37:39.038Z,89.46
2019-02-23T08:40:07.512Z,89.58
2019-02-23T08:42:35.116Z,89.66
2019-02-23T08:45:02.844Z,89.62
2019-02-23T08:47:30.442Z,89.49
2019-02-23T08:49:58.006Z,89.29
2019-02-23T08:52:25.407Z,89.26
2019-02-23T08:54:52.791Z,89.23
2019-02-23T08:57:20.148Z,89.23
2019-02-23T08:59:47.507Z,89.01
2019-02-23T09:02:14.847Z,88.99
2019-02-23T09:04:42.159Z,88.97
2019-02-23T09:07:09.549Z,89.08
2019-02-23T09:09:36.868Z,89.05
2019-02-23T09:12:04.186Z,88.87
2019-02-23T09:14:31.561Z,88.66
2019-02-23T09:16:59.002Z,88.59
2019-02-23T09:19:26.349Z,88.15
2019-02-23T09:21:53.729Z,87.83
2019-02-23T09:24:21.055Z,87.93
2019-02-23T09:26:48.440Z,87.96
2019-02-23T09:29:15.854Z,87.88
2019-02-23T09:31:43.198Z,87.65
2019-02-23T09:34:10.554Z,87.89
2019-02-23T09:36:37.954Z,87.39
2019-02-23T09:39:05.498Z,87.36
2019-02-23T09:41:32.845Z,87.12
2019-02-23T09:44:00.231Z,86.79
2019-02-23T09:46:27.564Z,86.90
2019-02-23T09:48:56.414Z,86.95
2019-02-23T09:51:24.174Z,86.60
2019-02-23T09:53:52.125Z,86.54
2019-02-23T09:56:19.705Z,86.14
2019-02-23T09:58:47.487Z,85.95
2019-02-23T10:01:14.849Z,86.09
2019-02-23T10:03:42.297Z,85.92
2019-02-23T10:06:09.710Z,86.02
2019-02-23T10:08:37.064Z,85.60
2019-02-23T10:11:04.375Z,85.64
2019-02-23T10:13:31.793Z,85.52
2019-02-23T10:15:59.124Z,85.57
2019-02-23T10:18:26.481Z,85.28
2019-02-23T10:20:53.881Z,84.43
2019-02-23T10:23:22.366Z,83.80
2019-02-23T10:25:50.236Z,83.83
2019-02-23T10:28:17.627Z,83.27
2019-02-23T10:30:44.987Z,83.19
2019-02-23T10:33:12.356Z,82.70
2019-02-23T10:35:40.152Z,82.35
2019-02-23T10:38:07.514Z,82.53
2019-02-23T10:40:35.302Z,82.71
2019-02-23T10:43:02.841Z,82.66
2019-02-23T10:45:30.328Z,82.60
2019-02-23T10:47:57.759Z,82.38
2019-02-23T10:50:25.120Z,81.75
2019-02-23T10:52:52.618Z,81.04
2019-02-23T10:55:19.995Z,80.20
2019-02-23T10:57:47.452Z,80.08
2019-02-23T11:00:18.097Z,79.63
2019-02-23T11:02:45.752Z,79.40
2019-02-23T11:05:13.253Z,79.59
2019-02-23T11:07:40.599Z,79.26
2019-02-23T11:10:08.112Z,78.28
2019-02-23T11:12:35.527Z,77.88
2019-02-23T11:15:02.853Z,77.73
2019-02-23T11:17:30.174Z,78.03
2019-02-23T11:19:57.634Z,77.83
2019-02-23T11:22:25.075Z,77.38
2019-02-23T11:24:52.419Z,76.93
2019-02-23T11:27:19.894Z,76.01
2019-02-23T11:29:49.352Z,75.52
2019-02-23T11:32:16.790Z,75.02
2019-02-23T11:34:44.235Z,74.62
2019-02-23T11:37:11.634Z,74.98
2019-02-23T11:39:39.024Z,75.38
2019-02-23T11:42:06.435Z,74.37
2019-02-23T11:44:33.829Z,74.42
2019-02-23T11:47:01.218Z,74.89
2019-02-23T11:49:28.695Z,74.57
2019-02-23T11:51:56.155Z,74.14
2019-02-23T11:54:23.482Z,74.03
2019-02-23T11:56:50.913Z,74.76
2019-02-23T11:59:18.320Z,74.85
2019-02-23T12:01:45.718Z,74.84
2019-02-23T12:04:13.227Z,74.75
2019-02-23T12:06:40.756Z,74.61
2019-02-23T12:09:08.465Z,74.16
2019-02-23T12:11:36.228Z,74.21
2019-02-23T12:14:03.890Z,74.26
2019-02-23T12:16:31.322Z,72.77
2019-02-23T12:18:58.810Z,73.32
2019-02-23T12:21:26.275Z,72.36
2019-02-23T12:23:53.693Z,72.09
2019-02-23T12:26:21.165Z,71.87
2019-02-23T12:28:48.573Z,72.42
2019-02-23T12:31:16.151Z,71.42
2019-02-23T12:33:43.612Z,71.29
2019-02-23T12:36:11.062Z,70.67
2019-02-23T12:38:38.456Z,70.28
2019-02-23T12:41:06.326Z,69.09
2019-02-23T12:43:33.807Z,67.26
2019-02-23T12:46:01.478Z,66.38
2019-02-23T12:48:29.037Z,67.23
2019-02-23T12:50:56.711Z,67.73
2019-02-23T12:53:24.513Z,67.65
2019-02-23T12:55:52.073Z,67.08
2019-02-23T12:58:19.783Z,67.25
2019-02-23T13:00:47.749Z,67.76
2019-02-23T13:03:15.337Z,65.11
2019-02-23T13:05:43.089Z,65.84
2019-02-23T13:08:10.824Z,64.75
2019-02-23T13:10:38.743Z,64.58
2019-02-23T13:13:45.444Z,64.85
2019-02-23T13:16:37.629Z,64.48
2019-02-23T13:19:41.472Z,63.89
2019-02-23T13:23:13.404Z,62.29
2019-02-23T13:26:10.385Z,63.94
2019-02-23T13:29:11.120Z,64.52
2019-02-23T13:32:22.660Z,62.81
2019-02-23T13:35:05.946Z,63.03
2019-02-23T13:38:16.745Z,62.58
2019-02-23T13:41:08.033Z,61.70
2019-02-23T13:44:38.389Z,63.06
2019-02-23T13:47:32.001Z,62.74
2019-02-23T13:50:44.003Z,64.10
2019-02-23T13:53:51.716Z,63.40
2019-02-23T13:56:42.969Z,63.10
2019-02-23T13:59:32.213Z,62.75
2019-02-23T14:02:53.672Z,64.25
2019-02-23T14:05:38.822Z,64.40
2019-02-23T14:09:00.158Z,64.30
2019-02-23T14:12:17.401Z,64.21
2019-02-23T14:15:29.206Z,64.00
2019-02-23T14:18:16.759Z,63.93
2019-02-23T14:21:11.235Z,64.31
2019-02-23T14:24:34.956Z,64.21
2019-02-23T14:27:40.204Z,64.53
2019-02-23T14:31:01.112Z,64.02
2019-02-23T14:34:15.705Z,63.72
2019-02-23T14:37:27.041Z,64.62
2019-02-23T14:40:30.996Z,64.44
2019-02-23T14:43:33.821Z,64.08
2019-02-23T14:46:51.691Z,64.40
2019-02-23T14:50:08.616Z,64.33
2019-02-23T14:53:09.054Z,64.52
2019-02-23T14:56:08.432Z,63.87
2019-02-23T14:59:11.662Z,63.44
2019-02-23T15:02:07.556Z,64.89
2019-02-23T15:05:19.968Z,64.94
2019-02-23T15:08:28.075Z,64.26
2019-02-23T15:11:46.674Z,63.62
2019-02-23T15:14:55.031Z,63.11
2019-02-23T15:17:59.094Z,63.80
2019-02-23T15:21:13.497Z,64.93
2019-02-23T15:24:21.353Z,64.50
2019-02-23T15:27:17.510Z,64.84
2019-02-23T15:30:29.651Z,65.15
2019-02-23T15:33:19.767Z,65.67
2019-02-23T15:36:27.597Z,66.21
2019-02-23T15:39:23.197Z,66.25
2019-02-23T15:42:50.414Z,66.70
2019-02-23T15:45:55.099Z,67.20
2019-02-23T15:48:39.767Z,67.41
2019-02-23T15:51:07.687Z,67.48
2019-02-23T15:53:35.628Z,67.73
2019-02-23T15:56:04.371Z,68.11
2019-02-23T15:58:32.330Z,68.45
2019-02-23T16:01:00.227Z,66.77
2019-02-23T16:03:28.129Z,68.19
2019-02-23T16:05:56.064Z,67.86
2019-02-23T16:08:23.921Z,67.76
2019-02-23T16:10:51.691Z,68.13
2019-02-23T16:13:19.511Z,68.44
2019-02-23T16:15:47.510Z,68.44
2019-02-23T16:18:15.315Z,68.82
2019-02-23T16:20:43.450Z,68.61
2019-02-23T16:23:11.878Z,66.73
2019-02-23T16:25:39.697Z,69.61
2019-02-23T16:28:07.639Z,69.21
2019-02-23T16:30:35.563Z,69.57
2019-02-23T16:33:03.457Z,70.50
2019-02-23T16:35:31.398Z,70.41
2019-02-23T16:37:59.333Z,70.63
2019-02-23T16:40:27.258Z,70.32
2019-02-23T16:42:57.287Z,71.01
2019-02-23T16:45:25.217Z,70.42
2019-02-23T16:47:53.120Z,70.31
2019-02-23T16:50:21.074Z,70.77
2019-02-23T16:52:48.988Z,70.37
2019-02-23T16:55:17.031Z,71.04
2019-02-23T16:57:44.940Z,70.56
2019-02-23T17:00:12.832Z,71.56
2019-02-23T17:02:40.732Z,71.80
2019-02-23T17:05:08.943Z,71.26
2019-02-23T17:07:36.742Z,71.44
2019-02-23T17:10:05.042Z,70.92
2019-02-23T17:12:33.030Z,71.47
2019-02-23T17:15:00.938Z,71.77
2019-02-23T17:17:28.858Z,71.79
2019-02-23T17:19:56.842Z,71.40
2019-02-23T17:22:25.980Z,71.64
2019-02-23T17:24:53.751Z,72.04
2019-02-23T17:27:21.913Z,72.83
2019-02-23T17:29:49.894Z,71.84
2019-02-23T17:32:17.919Z,71.02
2019-02-23T17:34:46.035Z,70.95
2019-02-23T17:37:13.931Z,72.14
2019-02-23T17:39:41.871Z,72.10
2019-02-23T17:42:09.772Z,71.43
2019-02-23T17:44:37.927Z,71.57
2019-02-23T17:47:06.119Z,70.98
2019-02-23T17:49:34.175Z,70.54
2019-02-23T17:52:02.001Z,70.61
2019-02-23T17:54:30.113Z,70.68
2019-02-23T17:56:58.110Z,70.49
2019-02-23T17:59:26.170Z,71.16
2019-02-23T18:01:54.230Z,70.56
2019-02-23T18:04:22.224Z,70.21
2019-02-23T18:06:50.145Z,69.73
2019-02-23T18:09:18.108Z,70.33
2019-02-23T18:11:46.206Z,70.59
2019-02-23T18:14:15.289Z,70.98
2019-02-23T18:16:43.229Z,70.42
2019-02-23T18:19:11.630Z,70.31
2019-02-23T18:21:39.560Z,70.86
2019-02-23T18:24:08.152Z,70.22
2019-02-23T18:26:36.192Z,69.87
2019-02-23T18:29:04.080Z,69.43
2019-02-23T18:31:32.401Z,69.97
2019-02-23T18:34:00.652Z,69.72
2019-02-23T18:36:28.910Z,69.87
2019-02-23T18:38:56.870Z,70.84
2019-02-23T18:41:24.867Z,69.78
2019-02-23T18:43:53.300Z,70.34
2019-02-23T18:46:21.137Z,70.54
2019-02-23T18:48:49.259Z,70.21
2019-02-23T18:51:17.233Z,70.49
2019-02-23T18:53:44.994Z,70.54
2019-02-23T18:56:13.044Z,70.51
2019-02-23T18:58:40.858Z,71.24
2019-02-23T19:01:09.181Z,70.29
2019-02-23T19:03:37.055Z,68.95
2019-02-23T19:06:04.963Z,68.79
2019-02-23T19:08:34.104Z,67.81
2019-02-23T19:11:02.071Z,69.17
2019-02-23T19:13:29.898Z,69.87
2019-02-23T19:15:57.812Z,69.45
2019-02-23T19:18:27.329Z,70.36
2019-02-23T19:20:55.271Z,70.19
2019-02-23T19:23:23.220Z,70.08
2019-02-23T19:25:52.258Z,68.61
2019-02-23T19:28:20.215Z,69.23
2019-02-23T19:30:50.638Z,69.17
2019-02-23T19:33:18.629Z,69.40
2019-02-23T19:35:46.567Z,70.04
2019-02-23T19:38:14.505Z,70.05
2019-02-23T19:40:42.320Z,70.10
2019-02-23T19:43:10.272Z,70.28
2019-02-23T19:45:38.547Z,70.89
2019-02-23T19:48:06.540Z,70.31
2019-02-23T19:50:40.841Z,70.42
2019-02-23T19:53:10.785Z,70.58
2019-02-23T19:55:38.746Z,70.41
2019-02-23T19:58:06.956Z,70.11
2019-02-23T20:00:40.496Z,70.39
2019-02-23T20:03:09.829Z,70.71
2019-02-23T20:05:38.242Z,70.06
2019-02-23T20:08:06.466Z,70.04
2019-02-23T20:10:34.359Z,70.35
2019-02-23T20:13:03.773Z,70.43
2019-02-23T20:15:34.019Z,70.69
2019-02-23T20:18:02.264Z,70.52
2019-02-23T20:20:30.330Z,71.04
2019-02-23T20:22:58.444Z,71.07
2019-02-23T20:25:26.387Z,71.95
2019-02-23T20:27:54.535Z,71.93
2019-02-23T20:30:22.757Z,72.08
2019-02-23T20:32:50.690Z,72.05
2019-02-23T20:35:18.642Z,72.02
2019-02-23T20:37:48.314Z,72.11
2019-02-23T20:40:17.561Z,72.57
2019-02-23T20:42:45.754Z,71.87
2019-02-23T20:45:13.764Z,71.67
2019-02-23T20:47:41.700Z,71.75
2019-02-23T20:50:09.813Z,71.31
2019-02-23T20:52:38.255Z,71.31
2019-02-23T20:55:06.409Z,71.62
2019-02-23T20:57:34.329Z,71.16
2019-02-23T21:00:03.690Z,69.94
2019-02-23T21:02:32.853Z,70.26
2019-02-23T21:05:00.885Z,70.26
2019-02-23T21:07:28.863Z,70.75
2019-02-23T21:09:56.815Z,71.20
2019-02-23T21:12:24.835Z,71.08
2019-02-23T21:14:52.837Z,71.43
2019-02-23T21:17:20.800Z,71.62
2019-02-23T21:19:48.737Z,71.23
2019-02-23T21:22:16.646Z,71.50
2019-02-23T21:24:44.476Z,71.34
2019-02-23T21:27:13.244Z,72.26
2019-02-23T21:29:41.392Z,71.89
2019-02-23T21:32:12.263Z,72.80
2019-02-23T21:34:42.225Z,72.70
2019-02-23T21:37:10.183Z,71.82
2019-02-23T21:39:38.060Z,72.36
2019-02-23T21:42:05.957Z,73.16
2019-02-23T21:44:33.894Z,71.84
2019-02-23T21:47:01.659Z,73.69
2019-02-23T21:49:29.529Z,73.92
2019-02-23T21:51:57.435Z,71.12
2019-02-23T21:54:25.122Z,70.97
2019-02-23T21:56:52.979Z,71.73
2019-02-23T21:59:20.850Z,72.92
2019-02-23T22:01:48.733Z,72.93
2019-02-23T22:04:16.373Z,73.37
2019-02-23T22:06:44.104Z,73.72
2019-02-23T22:09:11.761Z,72.11
2019-02-23T22:11:39.398Z,71.85
2019-02-23T22:14:07.012Z,72.24
2019-02-23T22:16:34.789Z,72.24
2019-02-23T22:19:03.157Z,72.54
2019-02-23T22:21:31.068Z,72.78
2019-02-23T22:23:58.810Z,72.78
2019-02-23T22:26:26.394Z,73.03
2019-02-23T22:28:54.055Z,73.00
2019-02-23T22:31:22.038Z,73.46
2019-02-23T22:33:49.747Z,73.34
2019-02-23T22:36:17.807Z,73.86
2019-02-23T22:38:45.346Z,72.93
2019-02-23T22:41:14.378Z,72.93
2019-02-23T22:43:41.988Z,73.10
2019-02-23T22:46:09.403Z,73.14
2019-02-23T22:48:36.820Z,74.44
2019-02-23T22:51:04.262Z,75.18
2019-02-23T22:53:31.696Z,73.64
2019-02-23T22:55:59.076Z,73.04
2019-02-23T22:58:26.551Z,73.56
2019-02-23T23:01:05.203Z,72.30
2019-02-23T23:03:32.570Z,73.01
2019-02-23T23:05:59.937Z,73.07
2019-02-23T23:08:27.336Z,72.55
2019-02-23T23:10:54.754Z,72.93
2019-02-23T23:13:22.105Z,73.70
2019-02-23T23:15:49.455Z,74.87
2019-02-23T23:18:16.872Z,74.68
2019-02-23T23:20:44.270Z,74.33
2019-02-23T23:23:11.617Z,72.81
2019-02-23T23:25:39.104Z,73.78
2019-02-23T23:28:06.453Z,72.17
2019-02-23T23:30:33.838Z,73.87
2019-02-23T23:33:01.337Z,73.87
2019-02-23T23:35:29.092Z,73.30
2019-02-23T23:37:56.738Z,73.52
2019-02-23T23:40:24.446Z,73.86
2019-02-23T23:42:57.989Z,73.77
2019-02-23T23:45:21.076Z,73.09
2019-02-23T23:47:48.477Z,73.01
2019-02-23T23:50:15.815Z,75.02
2019-02-23T23:52:43.251Z,75.59
2019-02-23T23:55:11.642Z,75.59
2019-02-23T23:57:39.128Z,75.70
